Time;durP1;ratioP1;P1;durP2;ratioP2;P2;SDS_P1;SDS_P2;PMS_P1;PMS_P2;Temp;Humidity;BMP_temperature;BMP_pressure;BME280_temperature;BME280_humidity;BME280_pressure;Samples;Min_cycle;Max_cycle;Signal;HPM_P1;HPM_P2
2023/07/03 00:00:12;;;;;;;8.23;3.90;;;18.40;57.90;;;;;;5038481;28;20037;-67
2023/07/03 00:02:38;;;;;;;12.07;4.28;;;18.40;57.80;;;;;;5054801;28;20043;-67
2023/07/03 00:05:06;;;;;;;11.48;4.72;;;18.40;57.80;;;;;;5054709;28;20040;-67
2023/07/03 00:07:33;;;;;;;10.77;4.28;;;18.40;57.70;;;;;;5054713;28;20048;-67
2023/07/03 00:09:58;;;;;;;12.77;4.60;;;18.30;57.60;;;;;;5072880;28;20476;-67
2023/07/03 00:12:24;;;;;;;10.50;4.32;;;18.30;57.70;;;;;;5054636;28;20107;-67
2023/07/03 00:14:50;;;;;;;14.35;5.13;;;18.30;57.60;;;;;;5053810;28;20426;-68
2023/07/03 00:17:16;;;;;;;10.30;4.75;;;18.30;57.80;;;;;;5054423;28;20111;-67
2023/07/03 00:19:42;;;;;;;15.00;5.82;;;18.30;57.80;;;;;;5054919;28;20444;-67
2023/07/03 00:22:07;;;;;;;11.50;4.20;;;18.30;57.90;;;;;;5054710;28;20595;-67
2023/07/03 00:24:33;;;;;;;11.63;4.68;;;18.30;57.80;;;;;;5038161;28;20131;-67
2023/07/03 00:27:00;;;;;;;9.82;4.32;;;18.20;57.80;;;;;;5054255;28;20044;-68
2023/07/03 00:29:29;;;;;;;9.07;4.80;;;18.20;57.90;;;;;;5054370;28;20094;-67
2023/07/03 00:31:55;;;;;;;11.70;3.88;;;18.20;57.90;;;;;;5072163;28;20037;-67
2023/07/03 00:34:20;;;;;;;15.15;5.25;;;18.30;58.00;;;;;;5054463;28;20051;-67
2023/07/03 00:36:47;;;;;;;11.55;5.03;;;18.20;58.40;;;;;;5038081;28;20075;-67
2023/07/03 00:39:14;;;;;;;10.95;4.97;;;18.20;58.40;;;;;;5054662;28;20483;-67
2023/07/03 00:41:43;;;;;;;12.43;4.43;;;18.20;58.40;;;;;;5037727;28;20044;-63
2023/07/03 00:44:11;;;;;;;10.52;4.40;;;18.20;58.50;;;;;;5054405;28;20068;-64
2023/07/03 00:46:39;;;;;;;10.05;3.97;;;18.20;58.90;;;;;;5054239;28;20527;-64
2023/07/03 00:49:05;;;;;;;14.70;4.97;;;18.20;58.90;;;;;;5071969;28;20086;-63
2023/07/03 00:51:31;;;;;;;12.60;5.35;;;18.20;59.30;;;;;;5054201;28;20472;-63
2023/07/03 00:53:57;;;;;;;10.05;4.10;;;18.20;59.40;;;;;;5054093;28;20028;-64
2023/07/03 00:56:22;;;;;;;10.68;4.50;;;18.20;59.20;;;;;;5054296;28;20110;-64
2023/07/03 00:58:48;;;;;;;14.55;5.05;;;18.20;59.10;;;;;;5053866;28;20185;-64
2023/07/03 01:01:23;;;;;;;13.18;5.40;;;18.20;59.20;;;;;;5054095;28;20048;-63
2023/07/03 01:04:00;;;;;;;14.95;5.32;;;18.10;59.50;;;;;;5053666;28;20488;-63
2023/07/03 01:06:31;;;;;;;12.18;4.45;;;18.10;59.70;;;;;;5054323;28;20044;-63
2023/07/03 01:08:59;;;;;;;11.63;4.78;;;18.10;60.10;;;;;;5072131;28;20040;-64
2023/07/03 01:11:26;;;;;;;13.30;5.15;;;18.10;60.00;;;;;;5054488;28;20063;-63
2023/07/03 01:13:56;;;;;;;13.23;5.13;;;18.10;60.20;;;;;;5071470;28;20492;-64
2023/07/03 01:16:22;;;;;;;11.73;4.85;;;18.10;60.40;;;;;;5053942;28;20047;-64
2023/07/03 01:18:49;;;;;;;12.38;4.90;;;18.10;60.50;;;;;;5053985;28;20123;-64
2023/07/03 01:21:22;;;;;;;12.50;5.03;;;18.10;60.60;;;;;;5054303;28;20142;-63
2023/07/03 01:23:56;;;;;;;14.02;5.35;;;18.10;60.40;;;;;;5053898;28;20048;-63
2023/07/03 01:26:24;;;;;;;12.55;5.10;;;18.10;60.40;;;;;;5056872;28;20518;-63
2023/07/03 01:28:56;;;;;;;15.73;4.88;;;18.00;60.70;;;;;;5055766;28;20052;-63
2023/07/03 01:31:24;;;;;;;13.40;5.10;;;18.00;60.80;;;;;;5075540;28;20048;-63
2023/07/03 01:33:52;;;;;;;13.93;4.95;;;18.00;60.80;;;;;;5057351;28;20041;-64
2023/07/03 01:36:18;;;;;;;13.57;4.82;;;18.00;61.00;;;;;;5075484;28;20036;-63
2023/07/03 01:38:46;;;;;;;11.85;4.70;;;18.10;61.30;;;;;;5057848;28;20045;-63
2023/07/03 01:41:15;;;;;;;14.73;4.95;;;18.00;61.00;;;;;;5075465;28;20064;-63
2023/07/03 01:43:42;;;;;;;13.27;4.75;;;18.00;61.30;;;;;;5054740;28;20083;-64
2023/07/03 01:46:08;;;;;;;11.60;5.00;;;18.00;61.70;;;;;;5040773;28;20207;-64
2023/07/03 01:48:34;;;;;;;14.15;5.15;;;18.00;61.50;;;;;;5057205;28;20127;-63
2023/07/03 01:51:03;;;;;;;12.23;4.35;;;18.00;61.50;;;;;;5057384;28;20055;-64
2023/07/03 01:53:53;;;;;;;13.10;4.55;;;18.00;61.40;;;;;;5057185;28;20488;-64
2023/07/03 01:56:35;;;;;;;14.00;4.95;;;18.00;61.60;;;;;;5057549;28;20044;-63
2023/07/03 01:59:15;;;;;;;12.85;4.50;;;18.00;61.80;;;;;;5057016;28;20127;-64
2023/07/03 02:01:56;;;;;;;12.85;4.57;;;18.00;61.90;;;;;;5074960;28;20478;-63
2023/07/03 02:04:40;;;;;;;12.50;4.63;;;18.00;61.90;;;;;;5056828;28;20105;-63
2023/07/03 02:07:09;;;;;;;14.73;4.85;;;18.00;61.70;;;;;;5056990;28;20475;-63
2023/07/03 02:09:35;;;;;;;12.85;4.10;;;17.90;61.50;;;;;;5057226;28;20044;-63
2023/07/03 02:12:05;;;;;;;15.25;4.47;;;17.90;61.40;;;;;;5056916;28;20047;-63
2023/07/03 02:14:34;;;;;;;15.23;4.55;;;17.90;60.80;;;;;;5051610;28;20389;-64
2023/07/03 02:17:01;;;;;;;11.63;3.55;;;17.90;60.20;;;;;;5056984;28;20040;-63
2023/07/03 02:19:29;;;;;;;9.43;3.60;;;17.90;59.20;;;;;;5056673;28;20049;-63
2023/07/03 02:21:56;;;;;;;10.20;3.00;;;17.90;58.80;;;;;;5040174;28;20494;-64
2023/07/03 02:24:22;;;;;;;7.95;2.53;;;17.90;58.60;;;;;;5056958;28;20468;-64
2023/07/03 02:26:48;;;;;;;8.18;2.92;;;17.80;58.00;;;;;;5056639;28;20097;-63
2023/07/03 02:29:15;;;;;;;11.82;3.72;;;17.90;57.90;;;;;;5056604;28;20107;-64
2023/07/03 02:31:41;;;;;;;12.63;3.15;;;17.90;57.90;;;;;;5056218;28;20045;-64
2023/07/03 02:34:07;;;;;;;10.18;2.72;;;17.80;57.60;;;;;;5056678;28;20119;-63
2023/07/03 02:36:37;;;;;;;9.88;2.53;;;17.90;57.60;;;;;;5039292;28;20530;-64
2023/07/03 02:39:04;;;;;;;8.38;2.53;;;17.90;57.10;;;;;;5056133;28;20127;-63
2023/07/03 02:41:31;;;;;;;8.80;3.15;;;17.80;56.70;;;;;;5056111;28;20036;-64
2023/07/03 02:43:57;;;;;;;6.10;2.00;;;17.80;56.50;;;;;;5056473;28;20083;-67
2023/07/03 02:46:23;;;;;;;7.55;2.75;;;17.80;56.40;;;;;;5056387;28;20072;-68
2023/07/03 02:48:49;;;;;;;7.35;2.70;;;17.80;56.30;;;;;;5056301;28;20131;-67
2023/07/03 02:51:14;;;;;;;6.97;2.25;;;17.80;55.90;;;;;;5056148;28;20056;-67
2023/07/03 02:53:41;;;;;;;8.25;1.83;;;17.80;55.20;;;;;;5056602;28;20036;-68
2023/07/03 02:56:07;;;;;;;6.15;1.92;;;17.80;55.10;;;;;;5074095;28;20036;-63
2023/07/03 02:58:33;;;;;;;8.32;2.30;;;17.70;54.70;;;;;;5055955;28;20073;-63
2023/07/03 03:00:59;;;;;;;5.55;1.98;;;17.80;55.10;;;;;;5039610;28;20040;-63
2023/07/03 03:03:25;;;;;;;6.47;1.90;;;17.70;55.40;;;;;;5055935;28;20464;-63
2023/07/03 03:05:50;;;;;;;8.38;2.25;;;17.70;54.80;;;;;;5055608;28;20052;-63
2023/07/03 03:08:16;;;;;;;6.85;2.10;;;17.80;54.60;;;;;;5039251;28;20056;-63
2023/07/03 03:10:43;;;;;;;8.10;2.00;;;17.70;54.70;;;;;;5056126;28;20423;-63
2023/07/03 03:13:08;;;;;;;5.43;2.00;;;17.70;54.80;;;;;;5055739;28;20036;-63
2023/07/03 03:15:35;;;;;;;5.15;1.83;;;17.70;54.90;;;;;;5055688;28;20036;-63
2023/07/03 03:18:02;;;;;;;5.05;1.98;;;17.70;54.70;;;;;;5055742;28;20040;-63
2023/07/03 03:20:27;;;;;;;6.07;2.00;;;17.70;54.60;;;;;;5055611;28;20148;-63
2023/07/03 03:22:53;;;;;;;5.85;1.63;;;17.70;54.90;;;;;;5052113;28;20130;-63
2023/07/03 03:25:19;;;;;;;8.48;2.20;;;17.60;54.90;;;;;;5072056;28;20040;-63
2023/07/03 03:27:45;;;;;;;7.43;2.00;;;17.60;54.60;;;;;;5055769;28;20391;-63
2023/07/03 03:30:11;;;;;;;5.97;1.70;;;17.60;54.70;;;;;;5055455;28;20553;-63
2023/07/03 03:32:36;;;;;;;9.60;2.38;;;17.60;54.80;;;;;;5055291;28;20075;-63
2023/07/03 03:35:02;;;;;;;4.72;1.95;;;17.60;54.70;;;;;;5055311;28;20032;-63
2023/07/03 03:37:28;;;;;;;4.70;1.48;;;17.60;54.70;;;;;;5055026;28;20045;-63
2023/07/03 03:39:54;;;;;;;6.07;2.17;;;17.50;54.40;;;;;;5055553;28;20052;-63
2023/07/03 03:42:19;;;;;;;5.50;1.80;;;17.50;54.60;;;;;;5073342;28;20553;-63
2023/07/03 03:44:45;;;;;;;5.13;1.92;;;17.50;54.70;;;;;;5073137;28;20037;-63
2023/07/03 03:47:11;;;;;;;5.30;1.63;;;17.50;54.80;;;;;;5055300;28;20399;-63
2023/07/03 03:49:39;;;;;;;4.55;1.63;;;17.40;54.80;;;;;;5038177;28;20047;-63
2023/07/03 03:52:05;;;;;;;5.03;2.08;;;17.40;54.90;;;;;;5054943;28;20105;-63
2023/07/03 03:54:31;;;;;;;6.50;1.50;;;17.40;54.70;;;;;;5054948;28;20044;-63
2023/07/03 03:56:57;;;;;;;8.50;1.88;;;17.40;54.70;;;;;;5072807;28;20037;-63
2023/07/03 03:59:23;;;;;;;6.05;2.40;;;17.30;54.70;;;;;;5054956;28;20048;-63
2023/07/03 04:01:49;;;;;;;8.20;1.70;;;17.30;54.90;;;;;;5054608;28;20039;-63
2023/07/03 04:04:15;;;;;;;6.95;1.88;;;17.30;55.00;;;;;;5054855;28;20044;-63
2023/07/03 04:06:42;;;;;;;8.35;1.77;;;17.20;54.90;;;;;;5054799;28;20486;-63
2023/07/03 04:09:07;;;;;;;4.53;1.58;;;17.20;55.00;;;;;;5054543;28;20048;-63
2023/07/03 04:11:36;;;;;;;4.97;1.73;;;17.20;55.20;;;;;;5054569;28;20392;-63
2023/07/03 04:14:02;;;;;;;5.70;1.70;;;17.20;55.20;;;;;;5054650;28;20131;-63
2023/07/03 04:16:30;;;;;;;7.10;1.70;;;17.10;55.20;;;;;;5038076;28;20136;-63
2023/07/03 04:18:55;;;;;;;6.00;1.60;;;17.10;55.30;;;;;;5054460;28;20040;-63
2023/07/03 04:21:21;;;;;;;6.15;1.75;;;17.10;55.40;;;;;;5054655;28;20126;-63
2023/07/03 04:23:47;;;;;;;9.25;2.00;;;17.10;55.60;;;;;;5054869;28;20044;-63
2023/07/03 04:26:14;;;;;;;7.07;1.80;;;17.10;55.80;;;;;;5054584;28;20056;-63
2023/07/03 04:28:39;;;;;;;5.90;1.30;;;17.00;56.00;;;;;;5054064;28;20480;-63
2023/07/03 04:31:06;;;;;;;8.70;2.33;;;17.00;56.10;;;;;;5072523;28;20028;-63
2023/07/03 04:33:31;;;;;;;7.00;2.03;;;17.00;56.20;;;;;;5054256;28;20045;-63
2023/07/03 04:35:57;;;;;;;5.03;1.83;;;17.00;56.20;;;;;;5054427;28;20045;-63
2023/07/03 04:38:25;;;;;;;4.55;1.50;;;17.00;56.40;;;;;;5054518;28;20123;-63
2023/07/03 04:40:53;;;;;;;5.93;1.75;;;16.90;56.40;;;;;;5072322;28;20484;-63
2023/07/03 04:43:19;;;;;;;7.35;2.00;;;17.00;56.60;;;;;;5054623;28;20432;-63
2023/07/03 04:45:50;;;;;;;7.00;1.70;;;16.90;56.60;;;;;;5054214;28;20109;-63
2023/07/03 04:48:16;;;;;;;6.90;2.35;;;16.90;56.70;;;;;;5037852;28;20123;-63
2023/07/03 04:50:46;;;;;;;10.02;1.83;;;16.90;56.80;;;;;;5054080;28;20048;-63
2023/07/03 04:53:12;;;;;;;6.63;2.55;;;16.90;57.00;;;;;;5054285;28;20047;-63
2023/07/03 04:55:38;;;;;;;8.52;2.55;;;16.90;57.00;;;;;;5054121;28;20076;-63
2023/07/03 04:58:05;;;;;;;5.82;2.10;;;16.90;57.10;;;;;;5053943;28;20037;-63
2023/07/03 05:00:31;;;;;;;6.93;2.30;;;16.90;57.20;;;;;;5072861;28;20391;-64
2023/07/03 05:03:02;;;;;;;8.45;1.85;;;16.90;57.40;;;;;;5058005;28;20044;-63
2023/07/03 05:05:28;;;;;;;8.00;2.38;;;16.90;57.70;;;;;;5058746;28;20094;-63
2023/07/03 05:07:55;;;;;;;7.20;2.03;;;16.90;58.30;;;;;;5058133;28;20106;-63
2023/07/03 05:10:22;;;;;;;8.15;2.08;;;16.90;58.10;;;;;;5058486;28;20060;-64
2023/07/03 05:12:49;;;;;;;6.60;1.77;;;17.00;58.10;;;;;;5057866;28;20036;-64
2023/07/03 05:15:16;;;;;;;9.38;2.28;;;17.00;58.20;;;;;;5058029;28;20053;-63
2023/07/03 05:17:42;;;;;;;7.65;2.13;;;17.00;58.20;;;;;;5075783;28;20045;-63
2023/07/03 05:20:14;;;;;;;6.22;1.60;;;17.10;58.30;;;;;;5057871;28;20472;-64
2023/07/03 05:22:42;;;;;;;9.85;2.40;;;17.10;58.20;;;;;;5075319;28;20032;-63
2023/07/03 05:25:09;;;;;;;9.00;2.20;;;17.20;58.80;;;;;;5075111;28;20506;-63
2023/07/03 05:27:35;;;;;;;5.38;1.73;;;17.40;59.00;;;;;;5055488;28;20060;-63
2023/07/03 05:30:02;;;;;;;8.35;2.08;;;17.80;58.90;;;;;;5057672;28;20434;-64
2023/07/03 05:32:28;;;;;;;10.90;2.42;;;18.00;58.00;;;;;;5074963;28;20484;-63
2023/07/03 05:34:54;;;;;;;8.13;1.77;;;18.40;57.80;;;;;;5057127;28;20044;-64
2023/07/03 05:37:19;;;;;;;7.97;2.83;;;18.80;57.20;;;;;;5040699;28;20040;-63
2023/07/03 05:39:48;;;;;;;8.27;2.20;;;19.20;56.50;;;;;;5057600;28;20357;-64
2023/07/03 05:42:15;;;;;;;7.32;1.92;;;19.60;55.60;;;;;;5058347;28;20048;-64
2023/07/03 05:44:41;;;;;;;10.38;2.20;;;20.00;55.00;;;;;;5057703;28;20090;-64
2023/07/03 05:47:07;;;;;;;6.07;1.88;;;20.50;54.30;;;;;;5057747;28;20032;-63
2023/07/03 05:49:32;;;;;;;8.30;2.13;;;20.90;53.50;;;;;;5057737;28;20052;-64
2023/07/03 05:51:58;;;;;;;8.52;2.42;;;21.30;52.70;;;;;;5056873;28;20388;-64
2023/07/03 05:54:24;;;;;;;5.40;2.00;;;21.70;52.20;;;;;;5057610;28;20128;-64
2023/07/03 05:57:00;;;;;;;8.60;1.75;;;22.10;51.20;;;;;;5057346;28;20047;-64
2023/07/03 05:59:26;;;;;;;7.72;2.17;;;22.40;50.20;;;;;;5057574;28;20134;-68
2023/07/03 06:01:54;;;;;;;6.78;1.90;;;22.80;49.20;;;;;;5074980;28;20506;-68
2023/07/03 06:04:22;;;;;;;6.70;1.90;;;23.10;48.20;;;;;;5040625;28;20041;-68
2023/07/03 06:06:49;;;;;;;5.72;1.70;;;23.30;47.40;;;;;;5075148;28;20111;-68
2023/07/03 06:09:14;;;;;;;8.35;2.03;;;23.60;47.00;;;;;;5056968;28;20048;-68
2023/07/03 06:11:40;;;;;;;5.00;1.77;;;23.80;46.30;;;;;;5057192;28;20411;-68
2023/07/03 06:14:13;;;;;;;9.98;3.15;;;24.10;45.80;;;;;;5056896;28;20050;-68
2023/07/03 06:16:39;;;;;;;5.90;1.70;;;24.30;45.20;;;;;;5057138;28;20102;-68
2023/07/03 06:19:05;;;;;;;6.60;2.10;;;24.50;44.20;;;;;;5056760;28;20037;-68
2023/07/03 06:21:30;;;;;;;7.03;2.20;;;24.60;43.60;;;;;;5074802;28;20036;-68
2023/07/03 06:23:56;;;;;;;5.25;1.92;;;24.60;43.30;;;;;;5054002;28;20032;-68
2023/07/03 06:26:22;;;;;;;9.55;2.33;;;24.70;42.90;;;;;;5056790;28;20159;-68
2023/07/03 06:28:47;;;;;;;8.43;2.22;;;24.70;42.90;;;;;;5056770;28;20163;-69
2023/07/03 06:31:13;;;;;;;7.35;2.10;;;24.70;42.80;;;;;;5056532;28;20071;-68
2023/07/03 06:33:38;;;;;;;6.18;1.70;;;24.80;42.30;;;;;;5040297;28;20045;-68
2023/07/03 06:36:04;;;;;;;6.88;1.85;;;24.80;42.10;;;;;;5074644;28;20033;-68
2023/07/03 06:38:30;;;;;;;6.45;2.30;;;24.80;41.90;;;;;;5055997;28;20044;-68
2023/07/03 06:40:59;;;;;;;10.15;2.22;;;24.80;41.50;;;;;;5073690;28;20403;-68
2023/07/03 06:43:25;;;;;;;6.10;1.70;;;24.80;41.60;;;;;;5040441;28;20052;-68
2023/07/03 06:45:51;;;;;;;7.88;2.33;;;24.80;41.70;;;;;;5056615;28;20058;-68
2023/07/03 06:48:16;;;;;;;7.07;1.80;;;24.90;41.70;;;;;;5056674;28;20466;-69
2023/07/03 06:50:42;;;;;;;7.82;2.50;;;25.00;41.50;;;;;;5055838;28;20123;-68
2023/07/03 06:53:08;;;;;;;7.75;2.00;;;25.10;41.40;;;;;;5039562;28;20043;-68
2023/07/03 06:55:34;;;;;;;7.03;1.92;;;25.10;41.00;;;;;;5074414;28;20040;-68
2023/07/03 06:58:00;;;;;;;7.20;2.00;;;25.20;40.70;;;;;;5073820;28;20040;-70
2023/07/03 07:00:26;;;;;;;7.30;2.15;;;25.30;41.00;;;;;;5055972;28;20111;-68
2023/07/03 07:02:53;;;;;;;9.52;2.08;;;25.40;40.20;;;;;;5074194;28;20392;-68
2023/07/03 07:05:21;;;;;;;6.43;1.80;;;25.60;40.00;;;;;;5055856;28;20032;-68
2023/07/03 07:07:47;;;;;;;7.90;2.28;;;25.70;40.00;;;;;;5056170;28;20365;-68
2023/07/03 07:10:13;;;;;;;7.70;1.80;;;25.90;39.80;;;;;;5056186;28;20124;-68
2023/07/03 07:12:38;;;;;;;6.45;1.83;;;26.00;39.50;;;;;;5055836;28;20499;-67
2023/07/03 07:15:05;;;;;;;6.78;2.38;;;26.10;39.30;;;;;;5055246;28;20105;-68
2023/07/03 07:17:30;;;;;;;4.70;1.75;;;26.20;38.60;;;;;;5056137;28;20496;-67
2023/07/03 07:19:56;;;;;;;6.22;1.75;;;26.20;38.90;;;;;;5055780;28;20127;-67
2023/07/03 07:22:22;;;;;;;5.07;1.40;;;26.30;38.70;;;;;;5055411;28;20051;-68
2023/07/03 07:24:48;;;;;;;5.35;1.50;;;26.30;38.70;;;;;;5055236;28;20396;-68
2023/07/03 07:27:13;;;;;;;5.18;1.60;;;26.40;38.80;;;;;;5073324;28;20037;-67
2023/07/03 07:29:40;;;;;;;6.13;1.67;;;26.40;38.80;;;;;;5039011;28;20091;-68
2023/07/03 07:32:06;;;;;;;6.35;1.63;;;26.50;38.70;;;;;;5055555;28;20380;-68
2023/07/03 07:34:32;;;;;;;5.03;1.40;;;26.50;38.20;;;;;;5055625;28;20518;-67
2023/07/03 07:36:58;;;;;;;3.65;1.27;;;26.40;38.30;;;;;;5055593;28;20036;-68
2023/07/03 07:39:25;;;;;;;4.65;1.42;;;26.40;38.20;;;;;;5054776;28;20161;-68
2023/07/03 07:41:51;;;;;;;4.43;1.50;;;26.40;37.90;;;;;;5055673;28;20047;-68
2023/07/03 07:44:18;;;;;;;5.18;1.13;;;26.30;37.90;;;;;;5055589;28;20091;-68
2023/07/03 07:46:43;;;;;;;5.45;1.15;;;26.30;37.80;;;;;;5055197;28;20116;-67
2023/07/03 07:49:09;;;;;;;4.57;1.50;;;26.20;37.80;;;;;;5054900;28;20136;-68
2023/07/03 07:51:35;;;;;;;4.43;1.40;;;26.30;37.70;;;;;;5073122;28;20032;-68
2023/07/03 07:54:03;;;;;;;6.32;1.55;;;26.30;37.40;;;;;;5055313;28;20032;-68
2023/07/03 07:56:28;;;;;;;5.95;0.90;;;26.40;36.90;;;;;;5054635;28;20044;-68
2023/07/03 07:58:54;;;;;;;3.97;0.98;;;26.40;36.90;;;;;;5055143;28;20044;-68
2023/07/03 08:01:20;;;;;;;5.53;1.20;;;26.40;36.70;;;;;;5054988;28;20044;-68
2023/07/03 08:03:46;;;;;;;5.05;1.05;;;26.30;36.50;;;;;;5072763;28;20041;-67
2023/07/03 08:06:13;;;;;;;5.95;1.27;;;26.30;36.60;;;;;;5054782;28;20044;-68
2023/07/03 08:08:39;;;;;;;3.60;1.25;;;26.30;36.40;;;;;;5071576;28;20131;-68
2023/07/03 08:11:08;;;;;;;2.58;1.00;;;26.30;36.40;;;;;;5054617;28;20036;-68
2023/07/03 08:13:34;;;;;;;3.60;1.10;;;26.30;36.30;;;;;;5054572;28;20055;-68
2023/07/03 08:16:00;;;;;;;4.57;1.30;;;26.20;36.10;;;;;;5054485;28;20442;-68
2023/07/03 08:18:26;;;;;;;3.97;1.00;;;26.20;36.60;;;;;;5054321;28;20483;-67
2023/07/03 08:20:53;;;;;;;3.83;1.10;;;26.10;36.50;;;;;;5072620;28;20059;-68
2023/07/03 08:23:19;;;;;;;3.65;0.95;;;26.00;36.00;;;;;;5038105;28;20119;-68
2023/07/03 08:25:53;;;;;;;3.25;1.05;;;25.80;36.30;;;;;;5054471;28;20048;-67
2023/07/03 08:28:19;;;;;;;4.60;1.20;;;25.60;36.30;;;;;;5072636;28;20050;-67
2023/07/03 08:30:45;;;;;;;4.25;1.40;;;25.30;36.70;;;;;;5054300;28;20119;-67
2023/07/03 08:33:12;;;;;;;4.00;1.45;;;25.10;36.80;;;;;;5054630;28;20139;-68
2023/07/03 08:35:38;;;;;;;4.30;1.33;;;24.80;37.40;;;;;;5050097;28;20071;-68
2023/07/03 08:38:04;;;;;;;5.90;1.40;;;24.60;37.70;;;;;;5046366;28;20078;-68
2023/07/03 08:40:30;;;;;;;4.82;1.65;;;24.40;38.10;;;;;;5072319;28;20051;-68
2023/07/03 08:42:58;;;;;;;5.75;1.15;;;24.20;38.70;;;;;;5054234;28;20060;-67
2023/07/03 08:45:45;;;;;;;5.50;1.33;;;24.10;39.20;;;;;;5054524;28;20407;-67
2023/07/03 08:48:16;;;;;;;5.93;1.35;;;23.90;39.70;;;;;;5047740;28;20052;-68
2023/07/03 08:50:46;;;;;;;5.10;1.45;;;23.80;39.70;;;;;;5048214;28;20041;-67
2023/07/03 08:53:17;;;;;;;5.47;1.20;;;23.60;39.80;;;;;;5049105;28;20037;-67
2023/07/03 08:56:04;;;;;;;3.97;1.55;;;23.30;39.90;;;;;;5052617;28;20036;-67
2023/07/03 08:58:30;;;;;;;4.55;1.10;;;23.20;40.10;;;;;;5050001;28;20087;-67
2023/07/03 09:01:21;;;;;;;8.65;2.15;;;23.00;40.40;;;;;;5065057;28;20495;-67
2023/07/03 09:04:08;;;;;;;5.82;1.20;;;22.80;40.70;;;;;;5050759;28;20037;-68
2023/07/03 09:07:14;;;;;;;5.05;1.30;;;22.70;41.40;;;;;;5044225;28;20044;-68
2023/07/03 09:09:57;;;;;;;4.80;1.17;;;22.70;41.60;;;;;;4996421;28;20481;-68
2023/07/03 09:12:27;;;;;;;5.85;1.38;;;22.70;41.70;;;;;;5040925;28;20045;-68
2023/07/03 09:14:59;;;;;;;4.53;1.08;;;22.70;42.00;;;;;;5065276;28;20472;-67
2023/07/03 09:17:26;;;;;;;4.57;1.40;;;22.80;40.90;;;;;;5047168;28;20094;-67
2023/07/03 09:19:55;;;;;;;4.68;1.58;;;22.70;40.40;;;;;;5045715;28;20087;-67
2023/07/03 09:22:43;;;;;;;6.13;1.50;;;22.60;40.60;;;;;;5040994;28;20130;-67
2023/07/03 09:25:19;;;;;;;5.00;1.27;;;22.60;40.70;;;;;;5027235;28;20033;-67
2023/07/03 09:27:47;;;;;;;5.13;1.40;;;22.60;41.30;;;;;;5052929;28;20044;-67
2023/07/03 09:30:14;;;;;;;6.10;1.25;;;22.60;41.80;;;;;;5054028;28;20046;-67
2023/07/03 09:32:40;;;;;;;5.22;1.15;;;22.70;41.10;;;;;;5037582;28;20442;-67
2023/07/03 09:35:15;;;;;;;6.20;2.13;;;22.70;40.90;;;;;;5071893;28;20033;-67
2023/07/03 09:37:57;;;;;;;3.70;1.13;;;22.80;41.00;;;;;;5053545;28;20032;-67
2023/07/03 09:40:29;;;;;;;4.55;1.13;;;23.00;40.10;;;;;;5048073;28;20048;-67
2023/07/03 09:42:55;;;;;;;5.70;1.30;;;23.10;39.70;;;;;;5053346;28;20484;-67
2023/07/03 09:45:28;;;;;;;3.45;1.00;;;23.10;39.70;;;;;;5054010;28;20094;-68
2023/07/03 09:47:57;;;;;;;3.63;0.90;;;23.20;40.00;;;;;;5056998;28;20132;-67
2023/07/03 09:50:43;;;;;;;5.68;1.60;;;23.30;40.20;;;;;;5050255;28;20411;-67
2023/07/03 09:53:16;;;;;;;6.55;1.75;;;23.30;40.00;;;;;;5057357;28;20048;-67
2023/07/03 09:55:43;;;;;;;4.95;1.35;;;23.30;39.40;;;;;;5075254;28;20561;-63
2023/07/03 09:58:16;;;;;;;4.00;1.08;;;23.30;39.60;;;;;;5057621;28;20451;-63
2023/07/03 10:00:54;;;;;;;3.50;1.10;;;23.30;40.00;;;;;;5057530;28;20147;-63
2023/07/03 10:03:29;;;;;;;5.10;1.38;;;23.40;40.00;;;;;;5074986;28;20044;-63
2023/07/03 10:05:56;;;;;;;5.35;1.27;;;23.50;39.90;;;;;;5075150;28;20032;-63
2023/07/03 10:08:26;;;;;;;3.30;1.00;;;23.40;40.00;;;;;;5056829;28;20048;-63
2023/07/03 10:10:54;;;;;;;4.93;1.20;;;23.60;40.00;;;;;;5056565;28;20037;-64
2023/07/03 10:13:29;;;;;;;7.40;1.75;;;23.60;39.50;;;;;;5074493;28;20079;-63
2023/07/03 10:15:55;;;;;;;6.75;1.23;;;23.60;38.80;;;;;;5036827;28;20043;-63
2023/07/03 10:18:25;;;;;;;5.85;1.58;;;23.60;38.90;;;;;;5056603;28;20040;-63
2023/07/03 10:20:51;;;;;;;4.03;1.10;;;23.60;39.20;;;;;;5057015;28;20491;-63
2023/07/03 10:23:26;;;;;;;4.28;1.13;;;23.60;39.20;;;;;;5075035;28;20055;-63
2023/07/03 10:26:04;;;;;;;4.18;1.10;;;23.60;39.20;;;;;;5048851;28;20127;-63
2023/07/03 10:28:38;;;;;;;5.68;1.05;;;23.60;39.20;;;;;;5056554;28;20052;-63
2023/07/03 10:31:13;;;;;;;6.00;1.30;;;23.60;38.30;;;;;;5056900;28;20048;-63
2023/07/03 10:33:45;;;;;;;4.38;0.98;;;23.60;38.90;;;;;;5072094;28;20112;-63
2023/07/03 10:36:18;;;;;;;3.92;0.80;;;23.60;39.50;;;;;;5031898;28;20048;-63
2023/07/03 10:39:08;;;;;;;4.45;1.10;;;23.70;39.30;;;;;;5041133;28;21506;-63
2023/07/03 10:41:44;;;;;;;4.70;1.02;;;23.80;39.50;;;;;;5041900;28;20044;-63
2023/07/03 10:44:24;;;;;;;4.38;1.00;;;23.90;39.00;;;;;;5041424;28;20052;-63
2023/07/03 10:47:06;;;;;;;2.95;1.02;;;24.00;38.30;;;;;;5041400;28;20155;-63
2023/07/03 10:49:37;;;;;;;3.97;1.02;;;24.00;38.60;;;;;;5040177;28;20045;-64
2023/07/03 10:52:25;;;;;;;3.97;1.27;;;23.90;38.20;;;;;;5040124;28;20499;-63
2023/07/03 10:55:06;;;;;;;5.55;1.17;;;23.80;37.90;;;;;;5041478;28;20033;-63
2023/07/03 10:57:48;;;;;;;4.35;1.00;;;23.70;38.40;;;;;;5041601;28;20198;-63
2023/07/03 11:00:23;;;;;;;2.80;0.80;;;23.60;38.60;;;;;;5038670;28;20064;-63
2023/07/03 11:03:12;;;;;;;5.30;1.13;;;23.50;39.40;;;;;;5056356;28;20381;-64
2023/07/03 11:05:56;;;;;;;3.45;0.82;;;23.40;39.00;;;;;;5040484;28;20055;-63
2023/07/03 11:08:25;;;;;;;3.22;1.00;;;23.30;39.50;;;;;;5037926;28;20040;-63
2023/07/03 11:11:24;;;;;;;6.53;0.88;;;23.20;39.40;;;;;;5036800;28;20037;-63
2023/07/03 11:14:13;;;;;;;4.88;1.65;;;23.10;39.10;;;;;;5031573;28;20045;-63
2023/07/03 11:17:06;;;;;;;3.78;0.90;;;23.10;39.40;;;;;;5030506;28;20446;-63
2023/07/03 11:19:59;;;;;;;5.13;1.25;;;23.10;40.00;;;;;;5035320;28;20495;-63
2023/07/03 11:22:31;;;;;;;5.35;1.38;;;23.10;40.20;;;;;;5052788;28;20063;-63
2023/07/03 11:25:08;;;;;;;6.60;1.83;;;23.20;40.50;;;;;;5038747;28;20776;-63
2023/07/03 11:28:18;;;;;;;3.38;0.98;;;23.20;40.50;;;;;;5035861;28;20048;-63
2023/07/03 11:30:45;;;;;;;3.55;0.90;;;23.20;40.30;;;;;;5052618;28;20391;-62
2023/07/03 11:33:13;;;;;;;3.88;1.40;;;23.20;40.40;;;;;;5038574;28;20036;-63
2023/07/03 11:35:51;;;;;;;4.05;1.13;;;23.30;40.60;;;;;;5039216;28;20364;-62
2023/07/03 11:38:18;;;;;;;4.78;1.02;;;23.30;39.70;;;;;;5053908;28;20128;-63
2023/07/03 11:40:56;;;;;;;5.78;1.17;;;23.30;39.90;;;;;;5043171;28;20047;-62
2023/07/03 11:43:33;;;;;;;3.70;1.02;;;23.40;39.60;;;;;;5031925;28;20098;-63
2023/07/03 11:46:07;;;;;;;5.03;0.90;;;23.40;39.60;;;;;;5047684;28;20043;-63
2023/07/03 11:48:39;;;;;;;6.30;1.40;;;23.30;39.50;;;;;;5044796;28;20044;-63
2023/07/03 11:51:28;;;;;;;3.60;1.00;;;23.30;39.40;;;;;;5045705;28;20037;-62
2023/07/03 11:53:57;;;;;;;3.67;0.93;;;23.30;39.50;;;;;;5042534;28;20072;-63
2023/07/03 11:56:41;;;;;;;4.72;1.02;;;23.30;39.30;;;;;;5025737;28;20404;-63
2023/07/03 11:59:17;;;;;;;7.20;1.60;;;23.30;39.70;;;;;;5042147;28;20105;-63
2023/07/03 12:01:43;;;;;;;5.35;1.00;;;23.30;39.70;;;;;;5044209;28;20049;-62
2023/07/03 12:04:08;;;;;;;5.40;1.27;;;23.30;39.60;;;;;;5041199;28;20843;-63
2023/07/03 12:06:40;;;;;;;8.63;1.50;;;23.30;39.60;;;;;;5059532;28;20170;-63
2023/07/03 12:09:21;;;;;;;4.10;1.10;;;23.30;39.30;;;;;;5041870;28;20134;-62
2023/07/03 12:11:59;;;;;;;4.85;0.93;;;23.30;39.60;;;;;;5021987;28;20101;-63
2023/07/03 12:14:40;;;;;;;4.10;1.10;;;23.40;39.70;;;;;;5040558;28;20389;-62
2023/07/03 12:17:33;;;;;;;3.47;1.23;;;23.30;39.50;;;;;;5047475;28;20750;-63
2023/07/03 12:20:10;;;;;;;4.30;1.48;;;23.30;39.50;;;;;;5037718;28;20076;-63
2023/07/03 12:22:44;;;;;;;7.13;1.30;;;23.30;39.40;;;;;;5037754;28;20119;-63
2023/07/03 12:25:27;;;;;;;5.30;1.63;;;23.20;39.20;;;;;;5047289;28;20036;-63
2023/07/03 12:27:54;;;;;;;4.50;1.25;;;23.20;39.00;;;;;;5041114;28;20145;-63
2023/07/03 12:30:29;;;;;;;5.50;1.50;;;23.10;39.30;;;;;;5042293;28;20041;-63
2023/07/03 12:32:56;;;;;;;6.55;1.17;;;23.00;39.10;;;;;;5059660;28;20036;-63
2023/07/03 12:35:27;;;;;;;5.97;1.50;;;22.90;38.40;;;;;;5042527;28;20040;-64
2023/07/03 12:37:55;;;;;;;6.05;1.38;;;22.80;38.40;;;;;;5043765;28;20045;-62
2023/07/03 12:40:24;;;;;;;2.65;0.82;;;22.70;38.90;;;;;;5042972;28;20060;-63
2023/07/03 12:42:55;;;;;;;4.50;1.10;;;22.60;38.80;;;;;;5046861;28;20169;-63
2023/07/03 12:45:27;;;;;;;3.88;0.90;;;22.60;39.00;;;;;;5045313;28;20102;-62
2023/07/03 12:48:19;;;;;;;4.20;1.10;;;22.60;39.40;;;;;;5059203;28;20048;-63
2023/07/03 12:50:50;;;;;;;5.90;1.10;;;22.60;40.30;;;;;;5062125;28;20052;-62
2023/07/03 12:53:16;;;;;;;2.92;1.05;;;22.60;40.60;;;;;;5055734;28;20033;-63
2023/07/03 12:55:46;;;;;;;4.82;1.15;;;22.60;39.80;;;;;;5038223;28;20036;-63
2023/07/03 12:58:12;;;;;;;4.28;1.15;;;22.70;40.10;;;;;;5036670;28;20040;-63